Map

Track Data

SID SEASON NUMBER BASIN SUBBASIN NAME ISO_TIME NATURE LAT LON WMO_WIND WMO_PRES WMO_AGENCY TRACK_TYPE DIST2LAND LANDFALL IFLAG USA_AGENCY USA_ATCF_ID USA_LAT USA_LON USA_RECORD USA_STATUS USA_WIND USA_PRES USA_SSHS USA_R34_NE USA_R34_SE USA_R34_SW USA_R34_NW USA_R50_NE USA_R50_SE USA_R50_SW USA_R50_NW USA_R64_NE USA_R64_SE USA_R64_SW USA_R64_NW USA_POCI USA_ROCI USA_RMW USA_EYE TOKYO_LAT TOKYO_LON TOKYO_GRADE TOKYO_WIND TOKYO_PRES TOKYO_R50_DIR TOKYO_R50_LONG TOKYO_R50_SHORT TOKYO_R30_DIR TOKYO_R30_LONG TOKYO_R30_SHORT TOKYO_LAND CMA_LAT CMA_LON CMA_CAT CMA_WIND CMA_PRES HKO_LAT HKO_LON HKO_CAT HKO_WIND HKO_PRES NEWDELHI_LAT NEWDELHI_LON NEWDELHI_GRADE NEWDELHI_WIND NEWDELHI_PRES NEWDELHI_CI NEWDELHI_DP NEWDELHI_POCI REUNION_LAT REUNION_LON REUNION_TYPE REUNION_WIND REUNION_PRES REUNION_TNUM REUNION_CI REUNION_RMW REUNION_R34_NE REUNION_R34_SE REUNION_R34_SW REUNION_R34_NW REUNION_R50_NE REUNION_R50_SE REUNION_R50_SW REUNION_R50_NW REUNION_R64_NE REUNION_R64_SE REUNION_R64_SW REUNION_R64_NW BOM_LAT BOM_LON BOM_TYPE BOM_WIND BOM_PRES BOM_TNUM BOM_CI BOM_RMW BOM_R34_NE BOM_R34_SE BOM_R34_SW BOM_R34_NW BOM_R50_NE BOM_R50_SE BOM_R50_SW BOM_R50_NW BOM_R64_NE BOM_R64_SE BOM_R64_SW BOM_R64_NW BOM_ROCI BOM_POCI BOM_EYE BOM_POS_METHOD BOM_PRES_METHOD NADI_LAT NADI_LON NADI_CAT NADI_WIND NADI_PRES WELLINGTON_LAT WELLINGTON_LON WELLINGTON_WIND WELLINGTON_PRES DS824_LAT DS824_LON DS824_STAGE DS824_WIND DS824_PRES TD9636_LAT TD9636_LON TD9636_STAGE TD9636_WIND TD9636_PRES TD9635_LAT TD9635_LON TD9635_WIND TD9635_PRES TD9635_ROCI NEUMANN_LAT NEUMANN_LON NEUMANN_CLASS NEUMANN_WIND NEUMANN_PRES MLC_LAT MLC_LON MLC_CLASS MLC_WIND MLC_PRES USA_GUST BOM_GUST BOM_GUST_PER REUNION_GUST REUNION_GUST_PER USA_SEAHGT USA_SEARAD_NE USA_SEARAD_SE USA_SEARAD_SW USA_SEARAD_NW STORM_SPEED STORM_DIR
1936221N27272 1936 34 NA GM NOT_NAMED 1936-08-07 18:00:00 TS 26.6000 -87.7000 30 hurdat_atl main 301 272 O_____________ hurdat_atl AL071936 26.6000 -87.7000 TD 30 -1 5 313
1936221N27272 1936 34 NA GM NOT_NAMED 1936-08-07 21:00:00 TS 26.7701 -87.9098 main 272 254 P_____________ AL071936 26.7701 -87.9098 TD 30 -1 5 310
1936221N27272 1936 34 NA GM NOT_NAMED 1936-08-08 00:00:00 TS 26.9000 -88.1000 30 1009 hurdat_atl main 254 240 O_____________ hurdat_atl AL071936 26.9000 -88.1000 TD 30 1009 -1 4 302
1936221N27272 1936 34 NA GM NOT_NAMED 1936-08-08 03:00:00 TS 26.9650 -88.2576 main 236 233 P_____________ AL071936 26.9650 -88.2576 TD 27 -1 3 291
1936221N27272 1936 34 NA GM NOT_NAMED 1936-08-08 06:00:00 TS 27.0000 -88.4000 25 hurdat_atl main 233 230 O_____________ hurdat_atl AL071936 27.0000 -88.4000 TD 25 -1 3 286
1936221N27272 1936 34 NA GM NOT_NAMED 1936-08-08 09:00:00 TS 27.0349 -88.5351 main 230 215 P_____________ AL071936 27.0349 -88.5351 TD 25 -1 3 291
1936221N27272 1936 34 NA GM NOT_NAMED 1936-08-08 12:00:00 TS 27.1000 -88.7000 25 hurdat_atl main 215 201 O_____________ hurdat_atl AL071936 27.1000 -88.7000 TD 25 -1 4 299
1936221N27272 1936 34 NA GM NOT_NAMED 1936-08-08 15:00:00 TS 27.2274 -88.9201 main 201 178 P_____________ AL071936 27.2274 -88.9201 TD 25 -1 5 304
1936221N27272 1936 34 NA GM NOT_NAMED 1936-08-08 18:00:00 TS 27.4000 -89.2000 25 hurdat_atl main 178 159 O_____________ hurdat_atl AL071936 27.4000 -89.2000 TD 25 -1 7 305
1936221N27272 1936 34 NA GM NOT_NAMED 1936-08-08 21:00:00 TS 27.6000 -89.5275 main 161 146 P_____________ AL071936 27.6000 -89.5275 TD 27 -1 7 303
1936221N27272 1936 34 NA GM NOT_NAMED 1936-08-09 00:00:00 TS 27.8000 -89.9000 30 hurdat_atl main 146 133 O_____________ hurdat_atl AL071936 27.8000 -89.9000 TD 30 -1 8 298
1936221N27272 1936 34 NA GM NOT_NAMED 1936-08-09 03:00:00 TS 27.9575 -90.3001 main 123 111 P_____________ AL071936 27.9575 -90.3001 TD 30 -1 8 293
1936221N27272 1936 34 NA GM NOT_NAMED 1936-08-09 06:00:00 TS 28.1000 -90.7000 30 hurdat_atl main 112 91 O_____________ hurdat_atl AL071936 28.1000 -90.7000 TD 30 -1 7 294
1936221N27272 1936 34 NA GM NOT_NAMED 1936-08-09 09:00:00 TS 28.2650 -91.0724 main 91 87 P_____________ AL071936 28.2650 -91.0724 TD 32 -1 7 296
1936221N27272 1936 34 NA GM NOT_NAMED 1936-08-09 12:00:00 TS 28.4000 -91.4000 35 hurdat_atl main 92 87 O_____________ hurdat_atl AL071936 28.4000 -91.4000 TS 35 0 6 293
1936221N27272 1936 34 NA GM NOT_NAMED 1936-08-09 15:00:00 TS 28.4874 -91.6650 main 97 97 P_____________ AL071936 28.4874 -91.6650 TS 35 0 5 283
1936221N27272 1936 34 NA GM NOT_NAMED 1936-08-09 18:00:00 TS 28.5000 -91.9000 35 hurdat_atl main 110 110 O_____________ hurdat_atl AL071936 28.5000 -91.9000 TS 35 0 4 261
1936221N27272 1936 34 NA GM NOT_NAMED 1936-08-09 21:00:00 TS 28.4225 -92.1501 main 123 122 P_____________ AL071936 28.4225 -92.1501 TS 35 0 5 246
1936221N27272 1936 34 NA GM NOT_NAMED 1936-08-10 00:00:00 TS 28.3000 -92.4000 35 hurdat_atl main 134 134 O_____________ hurdat_atl AL071936 28.3000 -92.4000 TS 35 0 5 244
1936221N27272 1936 34 NA GM NOT_NAMED 1936-08-10 03:00:00 TS 28.2075 -92.6574 main 150 150 P_____________ AL071936 28.2075 -92.6574 TS 35 0 5 246
1936221N27272 1936 34 NA GM NOT_NAMED 1936-08-10 06:00:00 TS 28.1000 -92.9000 35 hurdat_atl main 166 166 O_____________ hurdat_atl AL071936 28.1000 -92.9000 TS 35 0 5 239
1936221N27272 1936 34 NA GM NOT_NAMED 1936-08-10 09:00:00 TS 27.9649 -93.1074 main 184 184 P_____________ AL071936 27.9649 -93.1074 TS 35 0 5 230
1936221N27272 1936 34 NA GM NOT_NAMED 1936-08-10 12:00:00 TS 27.8000 -93.3000 35 hurdat_atl main 212 212 O_____________ hurdat_atl AL071936 27.8000 -93.3000 TS 35 0 5 225
1936221N27272 1936 34 NA GM NOT_NAMED 1936-08-10 15:00:00 TS 27.6225 -93.4999 main 228 221 P_____________ AL071936 27.6225 -93.4999 TS 35 0 5 221
1936221N27272 1936 34 NA GM NOT_NAMED 1936-08-10 18:00:00 TS 27.4000 -93.7000 35 hurdat_atl main 231 231 O_____________ hurdat_atl AL071936 27.4000 -93.7000 TS 35 0 6 214
1936221N27272 1936 34 NA GM NOT_NAMED 1936-08-10 21:00:00 TS 27.1074 -93.8925 main 247 247 P_____________ AL071936 27.1074 -93.8925 TS 35 0 7 211
1936221N27272 1936 34 NA GM NOT_NAMED 1936-08-11 00:00:00 TS 26.8000 -94.1000 35 hurdat_atl main 266 266 O_____________ hurdat_atl AL071936 26.8000 -94.1000 TS 35 0 7 215
1936221N27272 1936 34 NA GM NOT_NAMED 1936-08-11 03:00:00 TS 26.5499 -94.3348 main 284 251 P_____________ AL071936 26.5499 -94.3348 TS 35 0 7 222
1936221N27272 1936 34 NA GM NOT_NAMED 1936-08-11 06:00:00 TS 26.3000 -94.6000 35 hurdat_atl main 251 219 O_____________ hurdat_atl AL071936 26.3000 -94.6000 TS 35 0 7 223
1936221N27272 1936 34 NA GM NOT_NAMED 1936-08-11 09:00:00 TS 26.0075 -94.8925 main 219 192 P_____________ AL071936 26.0075 -94.8925 TS 35 0 8 222
1936221N27272 1936 34 NA GM NOT_NAMED 1936-08-11 12:00:00 TS 25.7000 -95.2000 35 hurdat_atl main 192 171 O_____________ hurdat_atl AL071936 25.7000 -95.2000 TS 35 0 8 222
1936221N27272 1936 34 NA GM NOT_NAMED 1936-08-11 15:00:00 TS 25.4074 -95.4922 main 171 151 P_____________ AL071936 25.4074 -95.4922 TS 35 0 8 222
1936221N27272 1936 34 NA GM NOT_NAMED 1936-08-11 18:00:00 TS 25.1000 -95.8000 35 hurdat_atl main 151 138 O_____________ hurdat_atl AL071936 25.1000 -95.8000 TS 35 0 9 222
1936221N27272 1936 34 NA GM NOT_NAMED 1936-08-11 21:00:00 TS 24.7575 -96.1424 main 138 121 P_____________ AL071936 24.7575 -96.1424 TS 35 0 9 222
1936221N27272 1936 34 NA GM NOT_NAMED 1936-08-12 00:00:00 TS 24.4000 -96.5000 35 hurdat_atl main 121 101 O_____________ hurdat_atl AL071936 24.4000 -96.5000 TS 35 0 10 222
1936221N27272 1936 34 NA GM NOT_NAMED 1936-08-12 03:00:00 TS 24.0499 -96.8498 main 101 61 P_____________ AL071936 24.0499 -96.8498 TS 35 0 10 222
1936221N27272 1936 34 NA GM NOT_NAMED 1936-08-12 06:00:00 TS 23.7000 -97.2000 35 hurdat_atl main 61 30 O_____________ hurdat_atl AL071936 23.7000 -97.2000 TS 35 0 10 222
1936221N27272 1936 34 NA GM NOT_NAMED 1936-08-12 09:00:00 TS 23.3424 -97.5499 main 30 0 P_____________ AL071936 23.3424 -97.5499 TS 35 0 10 223
1936221N27272 1936 34 NA NA NOT_NAMED 1936-08-12 12:00:00 TS 23.0000 -97.9000 35 hurdat_atl main 0 0 O_____________ hurdat_atl AL071936 23.0000 -97.9000 TS 35 0 9 225
1936221N27272 1936 34 NA NA NOT_NAMED 1936-08-12 15:00:00 TS 22.6902 -98.2503 main 0 0 P_____________ AL071936 22.6902 -98.2503 TS 30 -1 9 227
1936221N27272 1936 34 NA NA NOT_NAMED 1936-08-12 18:00:00 TS 22.4000 -98.6000 25 hurdat_atl main 0 O_____________ hurdat_atl AL071936 22.4000 -98.6000 TD 25 -1 9 228

About IBTrACS Database

This database is a web-friendly format of International Best Track Archive for Climate Stewardship (IBTrACS), a global best track data archive curated by NOAA dating back to 1842.

Updated: 2021-10-27